Time;durP1;ratioP1;P1;durP2;ratioP2;P2;SDS_P1;SDS_P2;PMS_P1;PMS_P2;Temp;Humidity;BMP_temperature;BMP_pressure;BME280_temperature;BME280_humidity;BME280_pressure;Samples;Min_cycle;Max_cycle;Signal;HPM_P1;HPM_P2
2021/03/09 00:00:01;;;;;;;3.40;1.40;;;21.20;49.10;;;;;;4987129;28;20042;-75
2021/03/09 00:02:27;;;;;;;6.40;2.00;;;21.20;49.10;;;;;;4993963;28;20038;-76
2021/03/09 00:04:54;;;;;;;4.75;1.63;;;21.30;49.20;;;;;;4993398;28;20022;-74
2021/03/09 00:07:20;;;;;;;3.95;1.95;;;21.20;49.10;;;;;;5001397;28;20014;-75
2021/03/09 00:09:47;;;;;;;4.55;2.95;;;21.20;49.10;;;;;;4992072;28;20033;-75
2021/03/09 00:12:13;;;;;;;2.85;1.60;;;21.20;49.80;;;;;;4996781;28;20072;-75
2021/03/09 00:14:40;;;;;;;5.07;1.35;;;21.20;49.20;;;;;;4993928;28;20061;-75
2021/03/09 00:17:06;;;;;;;5.30;1.45;;;21.20;49.20;;;;;;4992524;28;20018;-74
2021/03/09 00:19:33;;;;;;;7.00;2.20;;;21.20;49.20;;;;;;4995661;28;20061;-75
2021/03/09 00:21:59;;;;;;;5.10;1.70;;;21.20;49.20;;;;;;4995651;28;20022;-75
2021/03/09 00:24:26;;;;;;;6.32;1.83;;;21.20;49.30;;;;;;5009664;28;20057;-76
2021/03/09 00:26:52;;;;;;;4.05;1.70;;;21.20;49.40;;;;;;4992706;28;20028;-76
2021/03/09 00:29:19;;;;;;;4.60;1.40;;;21.20;49.30;;;;;;4997948;28;20014;-75
2021/03/09 00:31:45;;;;;;;6.65;1.70;;;21.20;49.40;;;;;;4996461;28;20077;-76
2021/03/09 00:34:12;;;;;;;5.70;1.92;;;21.20;49.40;;;;;;4996170;28;20029;-75
2021/03/09 00:36:38;;;;;;;6.35;2.22;;;21.20;49.40;;;;;;4993547;28;20107;-76
2021/03/09 00:39:05;;;;;;;5.75;2.00;;;21.20;49.30;;;;;;5003054;28;20482;-76
2021/03/09 00:41:32;;;;;;;2.28;1.10;;;21.20;49.30;;;;;;4992129;28;20027;-76
2021/03/09 00:43:58;;;;;;;2.60;1.52;;;21.20;49.30;;;;;;4994369;28;20011;-76
2021/03/09 00:46:25;;;;;;;7.93;2.03;;;21.20;49.30;;;;;;4997308;28;20053;-75
2021/03/09 00:48:51;;;;;;;5.38;1.77;;;21.20;49.10;;;;;;4995641;28;20026;-76
2021/03/09 00:51:18;;;;;;;7.53;1.90;;;21.20;49.10;;;;;;4995471;28;20037;-76
2021/03/09 00:53:44;;;;;;;4.72;1.98;;;21.20;49.10;;;;;;4992609;28;20030;-76
2021/03/09 00:56:11;;;;;;;4.72;1.67;;;21.20;49.20;;;;;;4989196;28;20018;-76
2021/03/09 00:58:37;;;;;;;4.55;1.75;;;21.20;49.20;;;;;;5010400;28;20481;-76
2021/03/09 01:01:04;;;;;;;10.55;1.63;;;21.20;49.20;;;;;;4995171;28;20022;-76
2021/03/09 01:03:30;;;;;;;5.13;1.60;;;21.20;49.20;;;;;;4993720;28;20031;-76
2021/03/09 01:05:57;;;;;;;5.20;1.77;;;21.20;49.20;;;;;;4994620;28;20018;-76
2021/03/09 01:08:23;;;;;;;4.07;1.30;;;21.20;49.20;;;;;;4994621;28;20505;-74
2021/03/09 01:10:50;;;;;;;5.88;1.63;;;21.20;49.00;;;;;;4994651;28;20027;-76
2021/03/09 01:13:16;;;;;;;6.35;1.55;;;21.20;49.00;;;;;;4993882;28;20429;-76
2021/03/09 01:15:42;;;;;;;5.70;1.15;;;21.20;49.00;;;;;;4993098;28;20030;-75
2021/03/09 01:18:09;;;;;;;7.10;2.08;;;21.20;48.90;;;;;;4986307;28;20031;-75
2021/03/09 01:20:35;;;;;;;6.20;1.45;;;21.20;49.00;;;;;;4993790;28;20038;-76
2021/03/09 01:23:02;;;;;;;3.38;1.42;;;21.10;48.80;;;;;;4989999;28;20469;-76
2021/03/09 01:25:28;;;;;;;5.25;1.20;;;21.10;48.80;;;;;;4994641;28;20037;-76
2021/03/09 01:27:55;;;;;;;3.17;1.67;;;21.10;48.80;;;;;;4991085;28;20512;-76
2021/03/09 01:30:22;;;;;;;5.07;1.38;;;21.20;48.90;;;;;;4995142;28;20365;-75
2021/03/09 01:32:48;;;;;;;3.40;1.20;;;21.20;48.90;;;;;;4996951;28;20580;-76
2021/03/09 01:35:15;;;;;;;5.20;1.45;;;21.20;48.90;;;;;;4992310;28;20033;-75
2021/03/09 01:37:42;;;;;;;4.85;1.90;;;21.10;49.00;;;;;;4994445;28;20077;-75
2021/03/09 01:40:10;;;;;;;4.18;1.40;;;21.10;49.00;;;;;;4986580;28;20045;-75
2021/03/09 01:42:37;;;;;;;4.88;1.40;;;21.10;49.10;;;;;;4986986;28;20034;-75
2021/03/09 01:45:06;;;;;;;3.58;0.90;;;21.10;48.90;;;;;;4991834;28;20027;-75
2021/03/09 01:47:35;;;;;;;5.75;1.23;;;21.10;48.90;;;;;;4989205;28;20457;-75
2021/03/09 01:50:02;;;;;;;3.80;0.95;;;21.10;49.00;;;;;;4994484;28;20029;-75
2021/03/09 01:52:29;;;;;;;4.63;1.13;;;21.00;49.00;;;;;;4991136;28;20033;-75
2021/03/09 01:54:56;;;;;;;2.88;1.00;;;21.00;49.00;;;;;;4991744;28;20129;-75
2021/03/09 01:57:22;;;;;;;5.28;1.83;;;21.00;49.00;;;;;;4989272;28;20022;-74
2021/03/09 01:59:50;;;;;;;1.88;1.05;;;21.10;49.10;;;;;;4994487;28;20042;-75
2021/03/09 02:02:17;;;;;;;4.97;1.83;;;21.00;48.90;;;;;;4996187;28;20022;-75
2021/03/09 02:04:44;;;;;;;5.40;1.95;;;21.00;49.00;;;;;;4988002;28;20056;-75
2021/03/09 02:07:10;;;;;;;4.53;1.13;;;21.00;49.70;;;;;;4990250;28;20494;-75
2021/03/09 02:09:37;;;;;;;3.47;1.70;;;21.00;49.10;;;;;;4988604;28;20134;-75
2021/03/09 02:12:24;;;;;;;3.20;1.80;;;21.00;49.10;;;;;;4993979;28;20018;-75
2021/03/09 02:14:59;;;;;;;4.57;0.98;;;21.00;49.10;;;;;;4992342;28;20469;-76
2021/03/09 02:17:56;;;;;;;7.70;1.48;;;21.00;49.00;;;;;;4991419;28;20057;-75
2021/03/09 02:20:55;;;;;;;5.82;1.13;;;21.00;49.20;;;;;;4992901;28;20046;-75
2021/03/09 02:23:34;;;;;;;1.92;0.95;;;21.00;49.10;;;;;;4982131;28;20038;-75
2021/03/09 02:26:28;;;;;;;4.25;0.90;;;21.00;49.20;;;;;;4993840;28;20104;-76
2021/03/09 02:29:33;;;;;;;2.47;1.17;;;21.00;49.10;;;;;;4991077;28;20037;-75
2021/03/09 02:32:02;;;;;;;4.45;2.03;;;20.90;49.00;;;;;;4983260;28;20061;-75
2021/03/09 02:34:35;;;;;;;3.83;1.23;;;21.00;49.20;;;;;;4993461;28;20809;-75
2021/03/09 02:37:08;;;;;;;3.60;1.05;;;20.90;49.30;;;;;;4992699;28;20061;-75
2021/03/09 02:39:37;;;;;;;2.17;0.77;;;20.90;49.20;;;;;;4990993;28;20407;-75
2021/03/09 02:42:05;;;;;;;2.22;1.08;;;20.90;49.30;;;;;;4991481;28;20030;-76
2021/03/09 02:44:33;;;;;;;2.35;0.90;;;20.90;49.30;;;;;;4994839;28;20018;-76
2021/03/09 02:47:02;;;;;;;5.07;0.90;;;20.90;49.40;;;;;;4995575;28;20117;-75
2021/03/09 02:49:33;;;;;;;3.47;0.90;;;20.90;49.60;;;;;;4991718;28;20026;-76
2021/03/09 02:52:01;;;;;;;2.58;0.77;;;20.90;49.70;;;;;;4999456;28;20029;-74
2021/03/09 02:54:29;;;;;;;3.88;1.05;;;20.90;49.80;;;;;;4994066;28;20088;-75
2021/03/09 02:56:58;;;;;;;2.47;1.30;;;20.90;49.80;;;;;;4999673;28;20022;-74
2021/03/09 02:59:26;;;;;;;3.63;1.00;;;20.90;49.70;;;;;;4993653;28;20030;-76
2021/03/09 03:01:53;;;;;;;4.35;1.15;;;20.90;49.70;;;;;;4995359;28;20022;-75
2021/03/09 03:04:21;;;;;;;3.22;1.38;;;20.90;49.80;;;;;;4994085;28;20069;-74
2021/03/09 03:06:49;;;;;;;4.63;1.17;;;20.90;49.80;;;;;;4992814;28;20110;-76
2021/03/09 03:09:21;;;;;;;2.63;0.90;;;20.90;49.90;;;;;;4991536;28;20022;-74
2021/03/09 03:11:50;;;;;;;4.45;1.05;;;20.90;50.00;;;;;;4994163;28;20118;-75
2021/03/09 03:14:18;;;;;;;2.00;0.93;;;20.90;50.00;;;;;;4992025;28;20426;-75
2021/03/09 03:16:45;;;;;;;3.70;0.80;;;20.80;49.90;;;;;;4996827;28;20034;-75
2021/03/09 03:19:14;;;;;;;4.25;1.30;;;20.90;50.10;;;;;;4994577;28;21077;-75
2021/03/09 03:21:42;;;;;;;3.17;1.38;;;20.80;50.20;;;;;;4996215;28;20030;-75
2021/03/09 03:24:10;;;;;;;1.90;1.00;;;20.80;50.30;;;;;;4992326;28;20022;-74
2021/03/09 03:26:41;;;;;;;1.45;0.80;;;20.80;50.30;;;;;;4991622;28;20030;-76
2021/03/09 03:29:09;;;;;;;5.22;1.27;;;20.80;50.40;;;;;;4999149;28;20022;-76
2021/03/09 03:31:36;;;;;;;4.13;1.30;;;20.80;50.40;;;;;;4995757;28;20061;-76
2021/03/09 03:34:04;;;;;;;4.00;1.15;;;20.80;50.50;;;;;;4995430;28;20018;-76
2021/03/09 03:36:35;;;;;;;2.03;0.88;;;20.80;50.60;;;;;;4990264;28;20022;-75
2021/03/09 03:39:03;;;;;;;4.90;1.58;;;20.80;50.60;;;;;;4998830;28;20153;-75
2021/03/09 03:41:30;;;;;;;3.25;1.40;;;20.80;50.50;;;;;;4993299;28;20011;-75
2021/03/09 03:43:56;;;;;;;5.28;0.93;;;20.70;50.50;;;;;;4996268;28;20040;-75
2021/03/09 03:46:23;;;;;;;3.63;1.52;;;20.70;50.50;;;;;;4994469;28;20584;-76
2021/03/09 03:48:49;;;;;;;2.55;0.90;;;20.70;50.60;;;;;;4994443;28;20042;-75
2021/03/09 03:51:17;;;;;;;3.88;1.20;;;20.70;50.70;;;;;;4993842;28;20050;-78
2021/03/09 03:53:50;;;;;;;2.80;1.70;;;20.60;50.70;;;;;;4991928;28;20033;-76
2021/03/09 03:56:21;;;;;;;2.90;0.80;;;20.70;50.80;;;;;;4991208;28;20374;-81
2021/03/09 03:59:08;;;;;;;5.15;1.20;;;20.70;50.80;;;;;;4989858;28;20093;-79
2021/03/09 04:01:36;;;;;;;2.05;0.90;;;20.60;50.80;;;;;;4993558;28;20018;-76
2021/03/09 04:04:09;;;;;;;5.13;0.90;;;20.60;50.80;;;;;;4992166;28;20061;-75
2021/03/09 04:06:37;;;;;;;3.33;0.93;;;20.60;50.90;;;;;;4995263;28;20467;-74
2021/03/09 04:09:08;;;;;;;10.95;1.80;;;20.60;50.90;;;;;;4992389;28;20027;-75
2021/03/09 04:11:36;;;;;;;5.43;1.00;;;20.60;50.80;;;;;;4991438;28;20014;-76
2021/03/09 04:14:03;;;;;;;8.10;4.68;;;20.60;50.90;;;;;;4990872;28;20050;-75
2021/03/09 04:16:32;;;;;;;13.45;7.15;;;20.50;50.80;;;;;;4990673;28;20018;-76
2021/03/09 04:19:02;;;;;;;10.38;7.05;;;20.50;50.80;;;;;;4990822;28;20121;-76
2021/03/09 04:21:29;;;;;;;7.97;5.28;;;20.50;50.90;;;;;;4990189;28;20022;-76
2021/03/09 04:23:56;;;;;;;21.77;8.50;;;20.60;51.00;;;;;;4982454;28;20117;-76
2021/03/09 04:26:23;;;;;;;15.05;6.13;;;20.50;50.90;;;;;;4984741;28;20041;-74
2021/03/09 04:28:51;;;;;;;17.10;5.80;;;20.50;51.00;;;;;;4993811;28;20509;-78
2021/03/09 04:31:19;;;;;;;12.93;6.70;;;20.50;51.20;;;;;;4991058;28;20077;-76
2021/03/09 04:33:49;;;;;;;13.65;6.60;;;20.50;51.10;;;;;;4987618;28;20029;-74
2021/03/09 04:36:20;;;;;;;13.57;5.72;;;20.50;51.00;;;;;;4993373;28;20062;-74
2021/03/09 04:38:48;;;;;;;10.52;3.80;;;20.50;51.00;;;;;;4995358;28;20074;-75
2021/03/09 04:41:16;;;;;;;9.30;3.08;;;20.50;51.20;;;;;;4991949;28;20034;-76
2021/03/09 04:43:43;;;;;;;8.82;2.50;;;20.40;51.00;;;;;;4997152;28;20018;-75
2021/03/09 04:46:10;;;;;;;11.40;2.95;;;20.40;51.00;;;;;;4987598;28;20036;-76
2021/03/09 04:48:40;;;;;;;9.55;2.75;;;20.50;51.00;;;;;;4984395;28;20053;-77
2021/03/09 04:51:11;;;;;;;7.65;2.03;;;20.40;50.90;;;;;;4981640;28;20446;-74
2021/03/09 04:53:39;;;;;;;4.28;1.63;;;20.40;50.90;;;;;;4990636;28;20022;-74
2021/03/09 04:56:06;;;;;;;7.50;1.65;;;20.40;51.00;;;;;;4994673;28;20022;-76
2021/03/09 04:58:33;;;;;;;4.55;1.38;;;20.40;50.90;;;;;;4994279;28;20022;-76
2021/03/09 05:01:01;;;;;;;5.95;1.70;;;20.40;50.90;;;;;;4994287;28;20042;-76
2021/03/09 05:03:27;;;;;;;5.82;1.60;;;20.40;51.00;;;;;;5003701;28;20019;-75
2021/03/09 05:05:55;;;;;;;5.32;2.15;;;20.40;50.90;;;;;;4982832;28;20069;-75
2021/03/09 05:08:22;;;;;;;4.63;1.63;;;20.40;50.90;;;;;;4991231;28;20030;-75
2021/03/09 05:10:49;;;;;;;3.90;1.10;;;20.40;51.00;;;;;;4985916;28;20469;-75
2021/03/09 05:13:16;;;;;;;5.72;1.70;;;20.40;51.00;;;;;;5010510;28;20064;-75
2021/03/09 05:15:43;;;;;;;4.93;1.48;;;20.40;50.90;;;;;;4978317;28;20537;-74
2021/03/09 05:18:10;;;;;;;6.70;2.15;;;20.40;50.90;;;;;;4992470;28;20026;-75
2021/03/09 05:20:38;;;;;;;3.05;1.23;;;20.40;50.90;;;;;;4988840;28;20082;-76
2021/03/09 05:23:04;;;;;;;6.22;1.50;;;20.40;51.00;;;;;;4990454;28;20015;-75
2021/03/09 05:25:31;;;;;;;4.72;1.40;;;20.40;50.90;;;;;;4988961;28;20019;-75
2021/03/09 05:27:58;;;;;;;4.35;1.23;;;20.40;50.90;;;;;;4989427;28;20052;-76
2021/03/09 05:30:25;;;;;;;5.10;1.50;;;20.40;50.90;;;;;;4989494;28;20038;-74
2021/03/09 05:32:52;;;;;;;3.22;1.50;;;20.40;50.90;;;;;;4990104;28;20018;-76
2021/03/09 05:35:19;;;;;;;6.32;1.40;;;20.40;50.90;;;;;;4991140;28;20022;-76
2021/03/09 05:37:46;;;;;;;7.07;1.48;;;20.40;50.90;;;;;;5003326;28;20449;-76
2021/03/09 05:40:15;;;;;;;4.43;1.40;;;20.40;50.80;;;;;;4986175;28;20478;-76
2021/03/09 05:42:52;;;;;;;7.78;1.65;;;20.50;50.90;;;;;;4988465;28;20037;-75
2021/03/09 05:45:19;;;;;;;6.93;1.35;;;20.40;50.80;;;;;;4989842;28;20033;-75
2021/03/09 05:47:46;;;;;;;6.35;2.05;;;20.50;50.90;;;;;;4993505;28;20021;-75
2021/03/09 05:50:14;;;;;;;5.07;1.48;;;20.50;50.90;;;;;;4990426;28;20390;-75
2021/03/09 05:52:42;;;;;;;4.70;1.63;;;20.50;50.80;;;;;;4994513;28;20027;-75
2021/03/09 05:55:10;;;;;;;2.92;0.98;;;20.50;50.70;;;;;;4989579;28;20045;-75
2021/03/09 05:57:37;;;;;;;9.18;1.75;;;20.50;50.70;;;;;;4993274;28;20022;-77
2021/03/09 06:00:06;;;;;;;10.32;2.58;;;20.50;50.70;;;;;;4991347;28;20489;-76
2021/03/09 06:02:34;;;;;;;4.00;1.42;;;20.50;50.80;;;;;;4996454;28;20445;-76
2021/03/09 06:05:03;;;;;;;12.68;1.90;;;20.50;50.80;;;;;;4987901;28;20026;-76
2021/03/09 06:07:30;;;;;;;4.45;1.35;;;20.50;50.80;;;;;;4991707;28;20022;-76
2021/03/09 06:09:57;;;;;;;5.45;1.20;;;20.50;50.80;;;;;;4993671;28;20084;-77
2021/03/09 06:12:25;;;;;;;6.57;1.05;;;20.60;50.70;;;;;;4990577;28;20050;-75
2021/03/09 06:15:00;;;;;;;5.68;1.40;;;20.60;50.80;;;;;;4991800;28;20033;-74
2021/03/09 06:17:28;;;;;;;10.23;2.72;;;20.60;50.90;;;;;;5006843;28;20470;-76
2021/03/09 06:19:55;;;;;;;7.00;1.38;;;20.60;51.00;;;;;;4990984;28;20050;-76
2021/03/09 06:22:39;;;;;;;8.60;1.33;;;20.60;51.10;;;;;;4989712;28;20033;-76
2021/03/09 06:25:08;;;;;;;3.95;1.25;;;20.50;51.00;;;;;;4994227;28;20021;-75
2021/03/09 06:27:35;;;;;;;5.10;1.05;;;20.60;51.10;;;;;;4992077;28;20022;-74
2021/03/09 06:30:04;;;;;;;9.00;1.55;;;20.60;51.20;;;;;;4978343;28;20041;-76
2021/03/09 06:32:45;;;;;;;8.85;1.90;;;20.60;51.30;;;;;;4989802;28;20137;-74
2021/03/09 06:35:38;;;;;;;7.78;3.95;;;20.60;51.40;;;;;;4991532;28;20095;-74
2021/03/09 06:38:24;;;;;;;6.85;2.72;;;20.60;51.70;;;;;;4981603;28;20039;-75
2021/03/09 06:41:15;;;;;;;4.57;1.95;;;20.70;51.90;;;;;;4986741;28;20053;-76
2021/03/09 06:43:58;;;;;;;4.72;2.22;;;20.70;52.00;;;;;;4984478;28;20022;-75
2021/03/09 06:46:24;;;;;;;7.53;1.80;;;20.70;52.10;;;;;;4983092;28;20023;-74
2021/03/09 06:48:56;;;;;;;7.32;1.80;;;20.80;52.40;;;;;;4989456;28;20113;-76
2021/03/09 06:51:36;;;;;;;6.78;1.25;;;20.80;52.50;;;;;;4986782;28;20014;-75
2021/03/09 06:54:10;;;;;;;8.75;1.70;;;20.80;52.60;;;;;;4986716;28;20034;-74
2021/03/09 06:56:46;;;;;;;8.48;2.03;;;20.90;52.90;;;;;;5002897;28;20101;-74
2021/03/09 06:59:24;;;;;;;4.50;1.75;;;21.00;53.10;;;;;;4985428;28;20070;-74
2021/03/09 07:02:17;;;;;;;3.78;1.63;;;21.00;53.10;;;;;;4990943;28;20477;-75
2021/03/09 07:04:45;;;;;;;4.22;1.60;;;21.00;53.20;;;;;;4988885;28;20117;-73
2021/03/09 07:07:21;;;;;;;6.47;2.08;;;21.00;53.50;;;;;;4986106;28;20032;-76
2021/03/09 07:09:59;;;;;;;9.13;2.38;;;21.10;53.60;;;;;;4987364;28;20026;-75
2021/03/09 07:12:26;;;;;;;7.75;4.47;;;21.20;53.90;;;;;;4989186;28;20991;-75
2021/03/09 07:14:55;;;;;;;13.52;7.13;;;21.20;54.00;;;;;;4986368;28;20023;-74
2021/03/09 07:17:24;;;;;;;12.63;5.32;;;21.20;54.20;;;;;;4988622;28;20018;-73
2021/03/09 07:19:52;;;;;;;11.18;4.68;;;21.30;54.40;;;;;;4985156;28;20046;-74
2021/03/09 07:22:20;;;;;;;11.93;3.90;;;21.30;54.40;;;;;;4987344;28;20047;-74
2021/03/09 07:25:04;;;;;;;8.43;3.08;;;21.30;54.50;;;;;;4989144;28;20038;-74
2021/03/09 07:28:09;;;;;;;6.55;2.40;;;21.40;54.60;;;;;;4989819;28;20030;-73
2021/03/09 07:30:39;;;;;;;6.00;2.10;;;21.40;54.60;;;;;;4985157;28;20501;-74
2021/03/09 07:33:07;;;;;;;6.00;1.80;;;21.40;55.30;;;;;;4987960;28;20504;-76
2021/03/09 07:35:34;;;;;;;8.30;2.17;;;21.50;54.80;;;;;;4993417;28;20029;-74
2021/03/09 07:38:03;;;;;;;8.30;1.73;;;21.50;54.70;;;;;;4993233;28;20389;-75
2021/03/09 07:40:35;;;;;;;9.45;2.30;;;21.60;54.80;;;;;;4994723;28;20061;-74
2021/03/09 07:43:02;;;;;;;5.32;2.55;;;21.70;55.00;;;;;;4981038;28;20442;-75
2021/03/09 07:45:35;;;;;;;7.50;2.80;;;21.70;55.20;;;;;;4991377;28;20059;-75
2021/03/09 07:48:08;;;;;;;6.40;2.03;;;21.80;55.20;;;;;;5006723;28;20030;-74
2021/03/09 07:50:43;;;;;;;4.90;1.38;;;21.80;55.30;;;;;;4990322;28;20018;-76
2021/03/09 07:53:13;;;;;;;5.63;2.80;;;21.90;55.30;;;;;;5003463;28;20478;-75
2021/03/09 07:55:42;;;;;;;7.88;1.38;;;21.90;55.40;;;;;;4985702;28;20042;-75
2021/03/09 07:58:28;;;;;;;4.75;1.58;;;22.00;55.80;;;;;;4994243;28;20086;-75
2021/03/09 08:00:57;;;;;;;6.93;1.48;;;22.10;55.80;;;;;;4990701;28;20363;-76
2021/03/09 08:03:30;;;;;;;10.63;2.05;;;22.20;55.60;;;;;;4991022;28;20109;-76
2021/03/09 08:06:17;;;;;;;10.13;2.42;;;22.20;55.50;;;;;;4993442;28;20501;-74
2021/03/09 08:08:50;;;;;;;9.32;1.80;;;22.20;54.80;;;;;;4988104;28;20356;-75
2021/03/09 08:11:25;;;;;;;11.90;2.05;;;22.20;54.50;;;;;;5004160;28;20026;-76
2021/03/09 08:14:03;;;;;;;13.90;2.38;;;22.20;54.30;;;;;;5004679;28;20466;-76
2021/03/09 08:16:37;;;;;;;8.55;1.83;;;22.30;54.10;;;;;;4990747;28;20028;-74
2021/03/09 08:19:23;;;;;;;5.97;1.88;;;22.30;54.00;;;;;;4992901;28;20050;-76
2021/03/09 08:21:58;;;;;;;11.77;2.30;;;22.30;53.90;;;;;;4985860;28;20073;-81
2021/03/09 08:24:43;;;;;;;15.20;3.63;;;22.30;53.80;;;;;;4989411;28;20023;-76
2021/03/09 08:27:27;;;;;;;14.60;6.25;;;22.30;54.00;;;;;;4988291;28;20030;-77
2021/03/09 08:29:56;;;;;;;10.57;4.30;;;22.30;54.20;;;;;;4988308;28;20036;-73
2021/03/09 08:32:31;;;;;;;16.10;3.75;;;22.30;54.60;;;;;;4990704;28;20027;-73
2021/03/09 08:35:13;;;;;;;12.38;2.80;;;22.40;54.90;;;;;;4989035;28;20164;-73
2021/03/09 08:37:42;;;;;;;17.42;2.80;;;22.40;55.00;;;;;;4991717;28;20019;-73
2021/03/09 08:40:18;;;;;;;15.20;2.10;;;22.40;54.90;;;;;;4992973;28;20184;-74
2021/03/09 08:43:02;;;;;;;13.13;2.00;;;22.40;55.10;;;;;;4988414;28;20109;-73
2021/03/09 08:45:56;;;;;;;10.40;3.50;;;22.50;55.20;;;;;;4991344;28;20102;-72
2021/03/09 08:48:58;;;;;;;7.10;2.60;;;22.50;55.20;;;;;;4992293;28;20088;-74
2021/03/09 08:51:41;;;;;;;12.40;2.75;;;22.60;55.20;;;;;;4965444;28;20117;-73
2021/03/09 08:54:18;;;;;;;7.78;1.67;;;22.60;55.20;;;;;;4989881;28;20050;-74
2021/03/09 08:56:44;;;;;;;10.15;2.63;;;22.60;55.10;;;;;;4997912;28;20073;-73
2021/03/09 08:59:11;;;;;;;14.35;1.83;;;22.60;55.10;;;;;;5007940;28;20029;-73
2021/03/09 09:01:37;;;;;;;9.48;1.55;;;22.60;55.40;;;;;;4991499;28;20033;-75
2021/03/09 09:04:14;;;;;;;14.70;2.58;;;22.60;55.50;;;;;;4990242;28;20625;-73
2021/03/09 09:06:41;;;;;;;12.00;2.80;;;22.60;55.50;;;;;;5009014;28;20022;-74
2021/03/09 09:09:09;;;;;;;9.25;1.90;;;22.70;55.60;;;;;;4994171;28;20385;-76
2021/03/09 09:11:35;;;;;;;15.00;2.08;;;22.70;55.40;;;;;;4996206;28;20104;-74
2021/03/09 09:14:15;;;;;;;22.10;3.30;;;22.80;55.30;;;;;;4989356;28;20469;-74
2021/03/09 09:16:42;;;;;;;6.57;1.38;;;22.80;55.00;;;;;;4992943;28;20030;-73
2021/03/09 09:19:08;;;;;;;9.63;1.67;;;22.90;54.80;;;;;;4994161;28;20038;-73
2021/03/09 09:21:50;;;;;;;8.15;1.75;;;23.00;54.80;;;;;;4993101;28;20025;-73
2021/03/09 09:24:21;;;;;;;3.80;1.92;;;23.00;54.80;;;;;;4992670;28;20058;-74
2021/03/09 09:26:58;;;;;;;7.20;1.83;;;23.00;54.60;;;;;;4988834;28;20030;-73
2021/03/09 09:29:25;;;;;;;3.85;1.42;;;23.00;54.30;;;;;;4993291;28;20026;-74
2021/03/09 09:31:57;;;;;;;8.63;1.42;;;23.10;54.30;;;;;;4988343;28;20029;-73
2021/03/09 09:34:35;;;;;;;8.65;2.30;;;23.10;54.10;;;;;;4990318;28;20494;-73
2021/03/09 09:37:15;;;;;;;8.23;1.77;;;23.10;53.90;;;;;;4996868;28;20156;-73
2021/03/09 09:39:43;;;;;;;8.55;1.67;;;23.10;54.00;;;;;;4993094;28;20457;-74
2021/03/09 09:42:15;;;;;;;8.20;1.52;;;23.10;53.90;;;;;;5011296;28;20021;-73
2021/03/09 09:44:42;;;;;;;8.43;3.00;;;23.20;53.90;;;;;;4995455;28;20026;-73
2021/03/09 09:47:10;;;;;;;11.68;1.65;;;23.20;53.80;;;;;;4991220;28;20080;-73
2021/03/09 09:49:39;;;;;;;9.00;1.52;;;23.20;53.70;;;;;;4989781;28;20497;-73
2021/03/09 09:52:18;;;;;;;8.07;2.00;;;23.20;53.70;;;;;;4986213;28;20106;-72
2021/03/09 09:55:11;;;;;;;11.02;2.00;;;23.30;53.70;;;;;;4992635;28;20034;-73
2021/03/09 09:57:50;;;;;;;6.85;1.30;;;23.20;53.50;;;;;;4990792;28;20122;-73
2021/03/09 10:00:19;;;;;;;8.68;1.52;;;23.20;53.50;;;;;;4989499;28;20037;-73
2021/03/09 10:03:04;;;;;;;10.35;1.95;;;23.30;53.60;;;;;;4994405;28;20084;-72
2021/03/09 10:05:30;;;;;;;5.57;1.73;;;23.20;53.60;;;;;;5021688;28;20053;-73
2021/03/09 10:07:57;;;;;;;7.68;2.53;;;23.30;53.60;;;;;;4992051;28;20529;-73
2021/03/09 10:10:23;;;;;;;6.03;1.33;;;23.20;53.60;;;;;;4998451;28;20038;-75
2021/03/09 10:12:50;;;;;;;5.45;1.67;;;23.20;53.60;;;;;;4991053;28;20031;-76
2021/03/09 10:15:19;;;;;;;6.65;2.03;;;23.20;53.70;;;;;;4990374;28;20018;-75
2021/03/09 10:17:45;;;;;;;8.77;2.22;;;23.20;53.70;;;;;;4990015;28;20026;-73
2021/03/09 10:20:23;;;;;;;7.88;2.22;;;23.20;53.60;;;;;;4997621;28;20403;-73
2021/03/09 10:23:02;;;;;;;6.38;1.80;;;23.20;53.70;;;;;;5003129;28;20103;-75
2021/03/09 10:25:29;;;;;;;13.63;2.45;;;23.30;53.70;;;;;;5000308;28;20026;-76
2021/03/09 10:28:04;;;;;;;5.75;1.42;;;23.20;53.70;;;;;;4990240;28;20026;-73
2021/03/09 10:30:42;;;;;;;8.43;1.15;;;23.20;53.70;;;;;;4989893;28;20014;-75
2021/03/09 10:33:11;;;;;;;3.33;1.25;;;23.20;53.70;;;;;;4997306;28;20018;-76
2021/03/09 10:36:07;;;;;;;8.77;2.28;;;23.20;53.60;;;;;;4987300;28;20023;-76
2021/03/09 10:38:34;;;;;;;12.07;2.80;;;23.20;53.50;;;;;;4993014;28;20498;-76
2021/03/09 10:41:01;;;;;;;9.20;1.67;;;23.20;53.60;;;;;;4988998;28;20092;-75
2021/03/09 10:43:49;;;;;;;5.70;1.27;;;23.10;53.60;;;;;;4987449;28;20061;-76
2021/03/09 10:46:16;;;;;;;7.75;2.28;;;23.10;53.60;;;;;;4980678;28;20054;-75
2021/03/09 10:48:42;;;;;;;7.95;1.58;;;23.10;53.50;;;;;;5024851;28;20496;-74
2021/03/09 10:51:19;;;;;;;6.38;1.60;;;23.10;53.50;;;;;;4996708;28;20429;-75
2021/03/09 10:53:47;;;;;;;4.45;1.13;;;23.10;53.60;;;;;;4991677;28;20500;-74
2021/03/09 10:56:14;;;;;;;6.25;1.35;;;23.10;53.70;;;;;;4992355;28;20053;-74
2021/03/09 10:58:41;;;;;;;5.43;1.63;;;23.10;53.70;;;;;;4990545;28;20070;-74
2021/03/09 11:01:47;;;;;;;6.93;1.65;;;23.10;53.70;;;;;;4986455;28;20031;-77
2021/03/09 11:04:53;;;;;;;9.45;2.42;;;23.10;53.80;;;;;;4994640;28;20030;-72
2021/03/09 11:07:59;;;;;;;10.07;1.88;;;23.10;54.00;;;;;;4985019;28;20601;-73
2021/03/09 11:11:05;;;;;;;7.32;2.28;;;23.00;54.20;;;;;;4992181;28;20474;-74
2021/03/09 11:13:31;;;;;;;9.43;2.03;;;23.00;54.30;;;;;;4984272;28;20037;-74
2021/03/09 11:15:58;;;;;;;12.73;2.30;;;23.00;54.50;;;;;;4993487;28;20034;-72
2021/03/09 11:18:24;;;;;;;10.52;2.08;;;22.90;54.60;;;;;;4991688;28;20105;-73
2021/03/09 11:20:52;;;;;;;10.40;2.03;;;22.90;54.90;;;;;;4996493;28;20085;-75
2021/03/09 11:23:19;;;;;;;8.77;2.03;;;22.90;55.30;;;;;;4991796;28;20073;-73
2021/03/09 11:25:45;;;;;;;7.93;2.28;;;22.80;55.40;;;;;;4988977;28;20022;-77
2021/03/09 11:28:12;;;;;;;9.90;2.15;;;22.80;55.60;;;;;;4988833;28;20427;-72
2021/03/09 11:30:38;;;;;;;13.25;1.85;;;22.80;55.80;;;;;;4989254;28;20929;-72
2021/03/09 11:33:05;;;;;;;12.32;1.90;;;22.80;56.00;;;;;;4989505;28;20463;-75
2021/03/09 11:35:32;;;;;;;10.93;2.45;;;22.70;56.00;;;;;;4990359;28;20105;-74
2021/03/09 11:37:59;;;;;;;8.75;1.70;;;22.80;56.20;;;;;;4991352;28;20058;-76
2021/03/09 11:40:25;;;;;;;16.15;2.92;;;22.70;56.40;;;;;;4989091;28;20104;-74
2021/03/09 11:42:52;;;;;;;13.43;3.75;;;22.70;56.40;;;;;;4992402;28;20033;-76
2021/03/09 11:45:18;;;;;;;9.60;2.63;;;22.70;56.40;;;;;;5026527;28;20439;-74
2021/03/09 11:47:45;;;;;;;10.15;3.08;;;22.70;56.40;;;;;;4996939;28;20025;-73
2021/03/09 11:50:12;;;;;;;10.63;1.90;;;22.70;56.30;;;;;;4995625;28;20026;-74
2021/03/09 11:52:39;;;;;;;9.38;1.70;;;22.70;56.20;;;;;;4994058;28;20434;-73
2021/03/09 11:55:07;;;;;;;12.45;2.20;;;22.60;56.00;;;;;;5000978;28;20033;-76
2021/03/09 11:57:34;;;;;;;6.38;1.83;;;22.60;56.00;;;;;;4993568;28;20057;-75
2021/03/09 12:00:01;;;;;;;11.68;2.80;;;22.60;56.10;;;;;;5002354;28;20080;-74
2021/03/09 12:02:28;;;;;;;16.48;2.90;;;22.60;56.20;;;;;;4991336;28;20019;-73
2021/03/09 12:04:54;;;;;;;20.38;2.92;;;22.60;56.30;;;;;;4988073;28;20031;-75
2021/03/09 12:07:21;;;;;;;12.50;2.55;;;22.60;56.30;;;;;;4996174;28;20018;-73
2021/03/09 12:09:47;;;;;;;11.63;2.10;;;22.60;56.20;;;;;;5004062;28;20089;-74
2021/03/09 12:12:14;;;;;;;10.88;1.58;;;22.60;56.20;;;;;;4992399;28;20042;-75
2021/03/09 12:14:40;;;;;;;24.08;20.13;;;22.60;56.10;;;;;;4996186;28;20085;-76
2021/03/09 12:17:07;;;;;;;17.42;10.52;;;22.60;56.10;;;;;;4988619;28;20034;-75
2021/03/09 12:19:33;;;;;;;11.48;6.32;;;22.60;56.20;;;;;;5000613;28;20136;-76
2021/03/09 12:22:00;;;;;;;10.98;4.30;;;22.60;56.10;;;;;;4992003;28;20092;-74
2021/03/09 12:24:26;;;;;;;15.38;3.53;;;22.60;56.10;;;;;;4994041;28;20021;-73
2021/03/09 12:26:53;;;;;;;13.18;2.28;;;22.60;56.10;;;;;;4993456;28;20029;-76
2021/03/09 12:29:19;;;;;;;16.10;2.47;;;22.60;56.20;;;;;;5014397;28;20030;-74
2021/03/09 12:31:46;;;;;;;15.63;2.38;;;22.60;56.30;;;;;;4997155;28;20101;-74
2021/03/09 12:34:12;;;;;;;9.32;2.83;;;22.60;56.40;;;;;;4993399;28;20088;-74
2021/03/09 12:36:39;;;;;;;9.05;3.25;;;22.60;56.50;;;;;;4994387;28;20026;-75
2021/03/09 12:39:05;;;;;;;11.38;3.65;;;22.60;56.50;;;;;;4996567;28;20041;-74
2021/03/09 12:41:32;;;;;;;11.18;2.60;;;22.60;56.50;;;;;;4991093;28;20018;-78
2021/03/09 12:43:58;;;;;;;7.45;2.00;;;22.70;56.40;;;;;;5001616;28;20472;-74
2021/03/09 12:46:25;;;;;;;13.73;3.10;;;22.70;56.40;;;;;;4994559;28;20031;-75
2021/03/09 12:48:51;;;;;;;6.72;1.70;;;22.70;56.30;;;;;;4994952;28;20045;-74
2021/03/09 12:51:18;;;;;;;11.43;2.20;;;22.70;56.40;;;;;;4996239;28;20026;-76
2021/03/09 12:53:44;;;;;;;26.45;3.60;;;22.70;56.50;;;;;;4991648;28;20110;-79
2021/03/09 12:56:12;;;;;;;13.05;3.28;;;22.70;56.60;;;;;;4993219;28;20053;-79
2021/03/09 12:58:38;;;;;;;8.32;2.88;;;22.60;56.60;;;;;;5023470;28;20058;-79
2021/03/09 13:01:05;;;;;;;6.90;1.85;;;22.60;56.70;;;;;;4996536;28;20527;-79